createdAt,value
2022-11-17T00:01:55.096Z,21.60
2022-11-17T00:04:38.004Z,19.80
2022-11-17T00:10:03.882Z,19.60
2022-11-17T00:13:05.423Z,19.20
2022-11-17T00:15:48.337Z,20.50
2022-11-17T00:18:49.895Z,19.50
2022-11-17T00:21:33.542Z,19.90
2022-11-17T00:24:17.155Z,19.70
2022-11-17T00:27:03.315Z,21.00
2022-11-17T00:29:46.102Z,23.50
2022-11-17T00:35:30.336Z,24.90
2022-11-17T00:40:59.525Z,22.30
2022-11-17T00:43:42.362Z,22.60
2022-11-17T00:49:09.770Z,23.10
2022-11-17T00:51:55.347Z,21.90
2022-11-17T00:54:38.120Z,19.20
2022-11-17T01:00:04.408Z,20.10
2022-11-17T01:02:47.210Z,21.50
2022-11-17T01:08:16.125Z,20.60
2022-11-17T01:11:06.500Z,22.60
2022-11-17T01:13:49.309Z,20.10
2022-11-17T01:19:17.489Z,23.60
2022-11-17T01:22:00.301Z,22.50
2022-11-17T01:24:43.404Z,25.30
2022-11-17T01:27:26.437Z,25.30
2022-11-17T01:30:10.173Z,21.40
2022-11-17T01:32:52.992Z,23.20
2022-11-17T01:38:18.608Z,22.30
2022-11-17T01:43:46.113Z,23.10
2022-11-17T01:46:39.127Z,21.60
2022-11-17T01:52:10.655Z,23.30
2022-11-17T01:54:55.118Z,24.40
2022-11-17T01:57:46.952Z,24.30
2022-11-17T02:00:30.382Z,21.30
2022-11-17T02:03:14.037Z,23.40
2022-11-17T02:06:17.293Z,20.00
2022-11-17T02:11:44.294Z,23.10
2022-11-17T02:14:28.184Z,23.10
2022-11-17T02:17:14.408Z,23.70
2022-11-17T02:20:12.201Z,21.50
2022-11-17T02:23:14.881Z,24.30
2022-11-17T02:26:19.781Z,21.50
2022-11-17T02:29:30.358Z,23.00
2022-11-17T02:32:44.787Z,21.80
2022-11-17T02:35:36.502Z,23.80
2022-11-17T02:38:25.558Z,20.30
2022-11-17T02:41:23.089Z,21.10
2022-11-17T02:44:16.180Z,22.00
2022-11-17T02:49:59.787Z,21.10
2022-11-17T02:52:42.801Z,22.50
2022-11-17T02:55:25.844Z,23.20
2022-11-17T02:58:12.261Z,22.10
2022-11-17T03:01:10.358Z,21.10
2022-11-17T03:04:25.321Z,20.30
2022-11-17T03:07:17.610Z,21.50
2022-11-17T03:10:49.593Z,20.20
2022-11-17T03:14:02.900Z,22.80
2022-11-17T03:17:10.972Z,19.50
2022-11-17T03:19:56.687Z,21.50
2022-11-17T03:22:42.174Z,22.00
2022-11-17T03:25:27.331Z,19.60
2022-11-17T03:28:12.267Z,22.90
2022-11-17T03:30:57.071Z,20.30
2022-11-17T03:33:41.720Z,19.50
2022-11-17T03:36:32.877Z,23.00
2022-11-17T03:39:17.889Z,21.10
2022-11-17T03:42:14.640Z,22.20
2022-11-17T03:45:04.052Z,21.70
2022-11-17T03:47:51.455Z,22.20
2022-11-17T03:50:38.466Z,22.30
2022-11-17T03:53:21.859Z,20.80
2022-11-17T03:56:26.398Z,20.90
2022-11-17T03:59:25.050Z,23.60
2022-11-17T04:02:08.069Z,21.10
2022-11-17T04:05:05.947Z,20.20
2022-11-17T04:07:49.187Z,19.50
2022-11-17T04:10:51.934Z,20.60
2022-11-17T04:13:53.535Z,23.50
2022-11-17T04:16:36.323Z,19.10
2022-11-17T04:22:02.016Z,21.00
2022-11-17T04:27:46.003Z,19.80
2022-11-17T04:30:28.869Z,21.70
2022-11-17T04:33:11.634Z,19.60
2022-11-17T04:38:40.476Z,19.00
2022-11-17T04:41:43.963Z,22.00
2022-11-17T04:44:28.723Z,20.80
2022-11-17T04:47:11.533Z,21.90
2022-11-17T04:49:54.447Z,19.80
2022-11-17T04:52:37.343Z,18.20
2022-11-17T04:55:21.125Z,20.90
2022-11-17T04:58:04.009Z,19.20
2022-11-17T05:00:46.750Z,19.70
2022-11-17T05:06:19.249Z,20.20
2022-11-17T05:09:06.033Z,19.70
2022-11-17T05:12:07.446Z,19.50
2022-11-17T05:14:50.568Z,19.70
2022-11-17T05:17:33.579Z,19.30
2022-11-17T05:20:18.454Z,21.00
2022-11-17T05:23:23.659Z,18.60
2022-11-17T05:26:06.521Z,20.50
2022-11-17T05:31:32.402Z,20.50
2022-11-17T05:36:58.848Z,21.50
2022-11-17T05:42:24.575Z,19.00
2022-11-17T05:45:08.426Z,19.40
2022-11-17T05:47:51.191Z,20.80
2022-11-17T05:53:18.484Z,17.70
2022-11-17T05:59:24.823Z,21.80
2022-11-17T06:02:16.044Z,18.50
2022-11-17T06:04:59.160Z,19.80
2022-11-17T06:07:42.178Z,19.20
2022-11-17T06:10:26.115Z,19.10
2022-11-17T06:13:09.151Z,18.50
2022-11-17T06:15:54.189Z,20.00
2022-11-17T06:18:45.352Z,19.10
2022-11-17T06:21:43.276Z,16.50
2022-11-17T06:24:33.348Z,19.40
2022-11-17T06:27:17.577Z,18.30
2022-11-17T06:30:03.569Z,17.10
2022-11-17T06:32:48.038Z,18.10
2022-11-17T06:35:33.610Z,18.00
2022-11-17T06:38:16.430Z,18.60
2022-11-17T06:43:42.126Z,17.40
2022-11-17T06:49:08.617Z,16.40
2022-11-17T06:51:51.426Z,18.20
2022-11-17T06:57:17.015Z,17.00
2022-11-17T07:02:44.890Z,15.60
2022-11-17T07:05:28.316Z,15.10
2022-11-17T07:08:12.510Z,17.50
2022-11-17T07:10:55.313Z,16.40
2022-11-17T07:16:23.744Z,13.10
2022-11-17T07:19:08.517Z,14.80
2022-11-17T07:21:51.461Z,14.40
2022-11-17T07:24:34.274Z,15.40
2022-11-17T07:29:59.892Z,13.80
2022-11-17T07:35:25.492Z,16.00
2022-11-17T07:40:51.526Z,16.10
2022-11-17T07:43:35.179Z,17.40
2022-11-17T07:46:18.044Z,18.00
2022-11-17T07:49:00.986Z,16.40
2022-11-17T07:51:43.804Z,15.70
2022-11-17T07:57:09.385Z,14.50
2022-11-17T07:59:52.268Z,15.30
2022-11-17T08:02:35.502Z,14.80
2022-11-17T08:05:18.680Z,15.30
2022-11-17T08:08:01.695Z,16.70
2022-11-17T08:10:44.509Z,23.30
2022-11-17T08:16:13.714Z,17.10
2022-11-17T08:18:57.764Z,19.00
2022-11-17T08:21:41.427Z,20.70
2022-11-17T08:24:24.304Z,16.90
2022-11-17T08:27:07.318Z,16.90
2022-11-17T08:29:50.334Z,20.30
2022-11-17T08:32:33.760Z,20.10
2022-11-17T08:35:21.177Z,18.20
2022-11-17T08:38:04.458Z,17.10
2022-11-17T08:40:47.824Z,19.20
2022-11-17T08:43:30.952Z,21.10
2022-11-17T08:46:14.267Z,18.70
2022-11-17T08:48:57.442Z,18.40
2022-11-17T08:51:41.415Z,18.90
2022-11-17T08:54:24.444Z,17.20
2022-11-17T08:57:07.512Z,18.70
2022-11-17T08:59:51.001Z,18.50
2022-11-17T09:02:33.902Z,19.10
2022-11-17T09:05:16.882Z,18.40
2022-11-17T09:08:10.644Z,19.90
2022-11-17T09:11:07.645Z,19.50
2022-11-17T09:13:50.629Z,18.20
2022-11-17T09:16:33.753Z,19.00
2022-11-17T09:19:17.289Z,18.40
2022-11-17T09:22:00.109Z,17.70
2022-11-17T09:27:25.841Z,14.80
2022-11-17T09:35:34.764Z,16.10
2022-11-17T09:41:09.498Z,17.40
2022-11-17T09:44:12.470Z,15.10
2022-11-17T09:47:14.427Z,13.30
2022-11-17T09:50:03.472Z,12.90
2022-11-17T09:53:10.242Z,12.50
2022-11-17T09:55:58.161Z,12.50
2022-11-17T09:58:52.740Z,12.30
2022-11-17T10:01:35.680Z,15.60
2022-11-17T10:04:19.519Z,14.40
2022-11-17T10:07:04.021Z,13.70
2022-11-17T10:09:50.386Z,15.80
2022-11-17T10:12:42.360Z,12.80
2022-11-17T10:15:33.559Z,14.60
2022-11-17T10:18:17.603Z,14.80
2022-11-17T10:21:05.444Z,13.50
2022-11-17T10:23:56.558Z,10.30
2022-11-17T10:26:49.580Z,12.20
2022-11-17T10:32:15.611Z,11.10
2022-11-17T10:35:17.658Z,11.40
2022-11-17T10:38:17.873Z,11.60
2022-11-17T10:41:03.276Z,12.40
2022-11-17T10:44:06.628Z,11.00
2022-11-17T10:47:02.669Z,15.50
2022-11-17T10:49:46.051Z,20.30
2022-11-17T10:52:28.818Z,14.80
2022-11-17T10:58:26.814Z,16.60
2022-11-17T11:01:10.205Z,16.90
2022-11-17T11:03:52.997Z,19.10
2022-11-17T11:07:14.224Z,14.40
2022-11-17T11:10:03.613Z,14.00
2022-11-17T11:12:59.347Z,14.40
2022-11-17T11:15:44.817Z,13.20
2022-11-17T11:18:30.358Z,12.90
2022-11-17T11:21:18.309Z,16.70
2022-11-17T11:24:07.870Z,13.80
2022-11-17T11:26:50.612Z,15.90
2022-11-17T11:32:50.803Z,15.30
2022-11-17T11:35:53.137Z,13.30
2022-11-17T11:39:11.685Z,12.60
2022-11-17T11:42:08.416Z,11.90
2022-11-17T11:45:18.338Z,13.40
2022-11-17T11:48:23.458Z,12.70
2022-11-17T11:51:19.324Z,15.20
2022-11-17T11:54:28.986Z,17.20
2022-11-17T11:57:15.877Z,10.80
2022-11-17T12:00:04.452Z,11.80
2022-11-17T12:03:23.821Z,11.40
2022-11-17T12:06:44.839Z,15.00
2022-11-17T12:09:40.856Z,9.60
2022-11-17T12:12:31.791Z,11.10
2022-11-17T12:15:20.872Z,11.00
2022-11-17T12:18:30.163Z,8.50
2022-11-17T12:21:21.869Z,13.80
2022-11-17T12:24:18.729Z,10.50
2022-11-17T12:27:32.536Z,13.00
2022-11-17T12:30:30.785Z,10.60
2022-11-17T12:33:13.594Z,13.70
2022-11-17T12:39:01.464Z,14.40
2022-11-17T12:41:47.248Z,14.80
2022-11-17T12:44:38.945Z,16.50
2022-11-17T12:47:28.431Z,13.10
2022-11-17T12:50:17.387Z,14.80
2022-11-17T12:53:14.886Z,14.80
2022-11-17T12:56:19.597Z,12.40
2022-11-17T12:59:28.501Z,15.10
2022-11-17T13:02:42.288Z,12.30
2022-11-17T13:05:28.386Z,15.40
2022-11-17T13:08:18.919Z,15.60
2022-11-17T13:11:14.516Z,16.40
2022-11-17T13:14:16.003Z,14.30
2022-11-17T13:17:00.536Z,12.80
2022-11-17T13:19:44.059Z,16.90
2022-11-17T13:22:27.142Z,15.10
2022-11-17T13:25:21.741Z,22.20
2022-11-17T13:28:06.069Z,17.20
2022-11-17T13:30:48.823Z,14.40
2022-11-17T13:36:24.947Z,16.70
2022-11-17T13:39:17.167Z,20.20
2022-11-17T13:42:02.490Z,19.30
2022-11-17T13:44:46.273Z,20.90
2022-11-17T13:47:37.824Z,20.30
2022-11-17T13:50:33.816Z,22.80
2022-11-17T13:53:25.685Z,21.80
2022-11-17T13:56:21.121Z,22.60
2022-11-17T13:59:21.529Z,22.10
2022-11-17T14:02:13.424Z,21.00
2022-11-17T14:05:14.517Z,20.10
2022-11-17T14:08:10.325Z,18.30
2022-11-17T14:11:05.584Z,18.30
2022-11-17T14:13:52.364Z,22.20
2022-11-17T14:16:39.194Z,24.10
2022-11-17T14:19:32.340Z,20.40
2022-11-17T14:25:05.956Z,19.30
2022-11-17T14:27:52.167Z,22.90
2022-11-17T14:30:36.275Z,21.80
2022-11-17T14:33:19.405Z,21.70
2022-11-17T14:36:02.512Z,22.60
2022-11-17T14:38:46.681Z,23.60
2022-11-17T14:41:29.591Z,21.10
2022-11-17T14:44:13.075Z,26.80
2022-11-17T14:46:55.913Z,25.20
2022-11-17T14:52:21.438Z,25.90
2022-11-17T15:00:31.592Z,30.60
2022-11-17T15:03:14.616Z,26.40
2022-11-17T15:05:57.641Z,24.70
2022-11-17T15:11:24.494Z,24.40
2022-11-17T15:14:07.337Z,24.80
2022-11-17T15:19:33.034Z,25.50
2022-11-17T15:22:16.140Z,24.20
2022-11-17T15:24:59.172Z,25.30
2022-11-17T15:27:41.915Z,24.10
2022-11-17T15:33:07.607Z,21.40
2022-11-17T15:38:43.083Z,22.80
2022-11-17T15:41:31.354Z,23.50
2022-11-17T15:44:15.914Z,26.40
2022-11-17T15:46:58.962Z,27.30
2022-11-17T15:52:48.715Z,25.10
2022-11-17T15:55:29.549Z,23.50
2022-11-17T15:58:12.315Z,24.90
2022-11-17T16:03:39.320Z,24.10
2022-11-17T16:06:22.491Z,24.80
2022-11-17T16:09:09.077Z,23.10
2022-11-17T16:11:51.924Z,21.70
2022-11-17T16:14:34.802Z,24.30
2022-11-17T16:20:02.478Z,20.20
2022-11-17T16:22:45.344Z,22.10
2022-11-17T16:28:12.283Z,20.70
2022-11-17T16:30:57.334Z,25.30
2022-11-17T16:33:40.541Z,26.00
2022-11-17T16:36:25.706Z,25.70
2022-11-17T16:39:15.257Z,31.90
2022-11-17T16:42:00.279Z,43.00
2022-11-17T16:44:43.330Z,37.80
2022-11-17T16:47:26.160Z,31.30
2022-11-17T16:52:52.000Z,26.60
2022-11-17T16:55:36.400Z,31.00
2022-11-17T16:58:19.124Z,27.90
2022-11-17T17:01:12.555Z,26.80
2022-11-17T17:04:01.212Z,28.60
2022-11-17T17:06:44.698Z,30.70
2022-11-17T17:09:28.206Z,34.00
2022-11-17T17:12:11.229Z,33.50
2022-11-17T17:14:54.038Z,38.00
2022-11-17T17:20:19.666Z,34.60
2022-11-17T17:23:03.307Z,37.50
2022-11-17T17:25:46.311Z,35.90
2022-11-17T17:31:18.190Z,34.80
2022-11-17T17:34:08.788Z,37.50
2022-11-17T17:36:51.628Z,35.20
2022-11-17T17:42:17.510Z,38.60
2022-11-17T17:45:00.838Z,34.10
2022-11-17T17:47:43.848Z,33.50
2022-11-17T17:50:26.661Z,36.80
2022-11-17T17:55:52.220Z,33.20
2022-11-17T17:58:40.527Z,33.30
2022-11-17T18:01:25.580Z,31.00
2022-11-17T18:04:14.341Z,35.60
2022-11-17T18:07:01.630Z,33.80
2022-11-17T18:09:44.666Z,37.10
2022-11-17T18:15:14.487Z,32.10
2022-11-17T18:17:57.250Z,32.40
2022-11-17T18:23:23.891Z,32.50
2022-11-17T18:29:13.571Z,32.90
2022-11-17T18:32:00.424Z,30.20
2022-11-17T18:34:43.235Z,30.30
2022-11-17T18:40:09.592Z,32.30
2022-11-17T18:42:52.710Z,30.90
2022-11-17T18:45:39.279Z,30.70
2022-11-17T18:48:22.103Z,30.30
2022-11-17T18:54:05.151Z,34.60
2022-11-17T18:56:50.095Z,32.60
2022-11-17T18:59:32.901Z,31.50
2022-11-17T19:04:59.178Z,29.50
2022-11-17T19:07:42.043Z,34.60
2022-11-17T19:10:24.966Z,40.30
2022-11-17T19:15:52.445Z,35.90
2022-11-17T19:18:35.985Z,42.00
2022-11-17T19:21:25.581Z,34.90
2022-11-17T19:24:09.103Z,32.80
2022-11-17T19:26:52.074Z,33.60
2022-11-17T19:29:35.192Z,31.70
2022-11-17T19:32:18.073Z,34.00
2022-11-17T19:35:11.843Z,33.60
2022-11-17T19:37:58.296Z,33.70
2022-11-17T19:40:41.049Z,33.40
2022-11-17T19:46:09.768Z,33.20
2022-11-17T19:48:53.003Z,37.00
2022-11-17T19:51:37.258Z,35.40
2022-11-17T19:54:20.972Z,35.10
2022-11-17T19:57:04.167Z,35.80
2022-11-17T19:59:47.145Z,36.00
2022-11-17T20:02:30.943Z,39.30
2022-11-17T20:05:13.808Z,38.00
2022-11-17T20:07:56.905Z,44.50
2022-11-17T20:10:39.655Z,39.10
2022-11-17T20:13:22.441Z,38.30
2022-11-17T20:18:57.052Z,39.60
2022-11-17T20:21:40.041Z,40.40
2022-11-17T20:24:23.884Z,43.20
2022-11-17T20:27:10.372Z,38.30
2022-11-17T20:29:53.185Z,38.30
2022-11-17T20:35:20.242Z,41.00
2022-11-17T20:38:04.122Z,38.90
2022-11-17T20:40:46.991Z,35.10
2022-11-17T20:46:13.844Z,35.70
2022-11-17T20:48:56.760Z,37.60
2022-11-17T20:51:40.695Z,33.80
2022-11-17T20:54:23.510Z,36.90
2022-11-17T20:59:49.088Z,31.20
2022-11-17T21:05:15.009Z,37.90
2022-11-17T21:10:40.589Z,35.50
2022-11-17T21:13:25.044Z,38.60
2022-11-17T21:16:14.139Z,33.90
2022-11-17T21:18:57.210Z,37.40
2022-11-17T21:21:40.327Z,39.80
2022-11-17T21:24:23.070Z,36.00
2022-11-17T21:29:48.662Z,39.80
2022-11-17T21:35:14.321Z,35.70
2022-11-17T21:37:57.817Z,37.90
2022-11-17T21:40:40.628Z,42.80
2022-11-17T21:46:08.811Z,44.20
2022-11-17T21:48:52.950Z,39.00
2022-11-17T21:51:38.610Z,39.70
2022-11-17T21:54:21.876Z,38.30
2022-11-17T21:57:04.665Z,41.40
2022-11-17T22:02:30.493Z,43.90
2022-11-17T22:05:13.408Z,62.80
2022-11-17T22:07:56.219Z,63.20
2022-11-17T22:13:21.640Z,50.80
2022-11-17T22:16:11.530Z,55.10
2022-11-17T22:18:54.274Z,49.30
2022-11-17T22:24:21.305Z,47.70
2022-11-17T22:27:04.202Z,45.70
2022-11-17T22:29:46.942Z,45.70
2022-11-17T22:32:29.832Z,44.30
2022-11-17T22:37:55.546Z,44.60
2022-11-17T22:40:39.663Z,42.50
2022-11-17T22:43:22.500Z,45.00
2022-11-17T22:48:50.411Z,43.50
2022-11-17T22:51:51.791Z,45.30
2022-11-17T22:54:35.447Z,42.50
2022-11-17T22:57:18.256Z,44.40
2022-11-17T23:00:01.058Z,41.90
2022-11-17T23:02:43.881Z,45.40
2022-11-17T23:08:33.554Z,42.20
2022-11-17T23:11:36.091Z,40.80
2022-11-17T23:14:19.157Z,43.50
2022-11-17T23:17:01.792Z,46.40
2022-11-17T23:19:45.481Z,47.70
2022-11-17T23:22:28.284Z,42.40
2022-11-17T23:27:53.515Z,36.60
2022-11-17T23:30:36.215Z,43.80
2022-11-17T23:33:18.838Z,42.50
2022-11-17T23:36:06.847Z,41.00
2022-11-17T23:38:50.725Z,42.90
2022-11-17T23:41:33.321Z,43.90
2022-11-17T23:44:16.013Z,46.40
2022-11-17T23:46:58.711Z,50.50
2022-11-17T23:49:41.321Z,45.60
2022-11-17T23:52:24.054Z,45.80
2022-11-17T23:55:07.456Z,44.70
2022-11-17T23:57:50.121Z,46.20
